DLH27A LFLL-EDDF
Flight info
| Callsign | DLH27A |
|---|---|
| Flight time | N/A |
| Altitude | 22000 |
| Route | RISOR T45 ASLEG/N0438F240 T45 VENAT/N0473F320 T45 SOSAL N871 KORED DCT BERSU N871 DITON/N0476F310 DCT LADOL/N0474F320 T163 EMPAX EMPAX5B |
| Aircraft | A339/H-SADE1E2E3GHIJ3J5M1P2RWXY/LB2D1 |
Departure
| Time | 2026-05-04 11:10 |
|---|---|
| Airport | Lyon Saint-Exupéry Airport (LFLL) |
Arrival
| Time | N/A |
|---|---|
| Airport | Frankfurt Main Airport (EDDF) |
| Time | Latitude | Longitude | Altitude | Speed | Heading |
|---|---|---|---|---|---|
| 2026-05-04 10:58 | 45.71976 | 5.08051 | 815 ft | 0 kts | 254° |
| 2026-05-04 11:02 | 45.71977 | 5.08060 | 813 ft | 2 kts | 254° |
| 2026-05-04 11:02 | 45.71985 | 5.08100 | 810 ft | 5 kts | 254° |
| 2026-05-04 11:05 | 45.72319 | 5.08417 | 809 ft | 1 kts | 3° |
| 2026-05-04 11:06 | 45.72350 | 5.08410 | 809 ft | 8 kts | 354° |
| 2026-05-04 11:06 | 45.72422 | 5.08400 | 808 ft | 13 kts | 355° |
| 2026-05-04 11:06 | 45.72550 | 5.08384 | 806 ft | 25 kts | 355° |
| 2026-05-04 11:06 | 45.72774 | 5.08360 | 802 ft | 38 kts | 356° |
| 2026-05-04 11:08 | 45.74635 | 5.08463 | 773 ft | 4 kts | 61° |
| 2026-05-04 11:10 | 45.72344 | 5.08889 | 1695 ft | 164 kts | 175° |
| 2026-05-04 11:12 | 45.63234 | 5.10026 | 7626 ft | 226 kts | 177° |
| 2026-05-04 11:12 | 45.61652 | 5.10276 | 8465 ft | 237 kts | 170° |
| 2026-05-04 11:12 | 45.60096 | 5.11421 | 8974 ft | 268 kts | 144° |
| 2026-05-04 11:12 | 45.58958 | 5.13630 | 9819 ft | 287 kts | 120° |
| 2026-05-04 11:13 | 45.58323 | 5.16378 | 10520 ft | 304 kts | 109° |
| 2026-05-04 11:13 | 45.57861 | 5.19459 | 10893 ft | 328 kts | 105° |
| 2026-05-04 11:13 | 45.57415 | 5.22765 | 11254 ft | 346 kts | 105° |
| 2026-05-04 11:13 | 45.56930 | 5.26085 | 11972 ft | 351 kts | 106° |
| 2026-05-04 11:14 | 45.56388 | 5.29522 | 12700 ft | 357 kts | 107° |
| 2026-05-04 11:14 | 45.55812 | 5.32957 | 13562 ft | 361 kts | 108° |
| 2026-05-04 11:14 | 45.55209 | 5.36458 | 14386 ft | 365 kts | 108° |
| 2026-05-04 11:16 | 45.51056 | 5.61883 | 20072 ft | 394 kts | 98° |
| 2026-05-04 11:16 | 45.51007 | 5.65841 | 20780 ft | 402 kts | 90° |
| 2026-05-04 11:16 | 45.51334 | 5.69796 | 21475 ft | 409 kts | 84° |
| 2026-05-04 11:17 | 45.51746 | 5.73872 | 21920 ft | 421 kts | 84° |
| 2026-05-04 11:17 | 45.52155 | 5.78105 | 22056 ft | 440 kts | 85° |
| 2026-05-04 11:19 | 45.60656 | 6.07299 | 24683 ft | 492 kts | 55° |
| 2026-05-04 11:19 | 45.62660 | 6.11281 | 25210 ft | 495 kts | 55° |
| 2026-05-04 11:19 | 45.64683 | 6.15292 | 25721 ft | 496 kts | 55° |
| 2026-05-04 11:19 | 45.66713 | 6.19301 | 26243 ft | 497 kts | 55° |
| 2026-05-04 11:20 | 45.68722 | 6.23261 | 26774 ft | 498 kts | 55° |
| 2026-05-04 11:20 | 45.70765 | 6.27280 | 27324 ft | 498 kts | 54° |
| 2026-05-04 11:20 | 45.72805 | 6.31285 | 27877 ft | 498 kts | 54° |
| 2026-05-04 11:20 | 45.74856 | 6.35300 | 28441 ft | 498 kts | 54° |